Time;durP1;ratioP1;P1;durP2;ratioP2;P2;SDS_P1;SDS_P2;PMS_P1;PMS_P2;Temp;Humidity;BMP_temperature;BMP_pressure;BME280_temperature;BME280_humidity;BME280_pressure;Samples;Min_cycle;Max_cycle;Signal;HPM_P1;HPM_P2
2022/03/27 00:01:57;;;;;;;;;;;;;;;16.87;27.82;100005.28;4463650;32;33084;-82
2022/03/27 00:04:25;;;;;;;;;;;;;;;16.81;28.07;99999.16;4456259;32;35002;-77
2022/03/27 00:06:52;;;;;;;;;;;;;;;17.05;27.67;99993.94;4452708;32;35273;-79
2022/03/27 00:09:19;;;;;;;;;;;;;;;17.20;27.75;99995.69;4452630;32;34829;-82
2022/03/27 00:11:47;;;;;;;;;;;;;;;17.08;28.18;99998.28;4449694;32;32973;-79
2022/03/27 00:14:14;;;;;;;;;;;;;;;17.22;27.69;99997.41;4464099;32;33674;-82
2022/03/27 00:16:41;;;;;;;;;;;;;;;17.31;27.47;99996.50;4461723;32;35096;-80
2022/03/27 00:19:09;;;;;;;;;;;;;;;17.11;27.97;100004.41;4466941;32;34083;-78
2022/03/27 00:21:36;;;;;;;;;;;;;;;16.73;28.19;99996.50;4467458;32;34450;-79
2022/03/27 00:24:03;;;;;;;;;;;;;;;16.89;28.25;100003.50;4467886;32;35623;-79
2022/03/27 00:26:31;;;;;;;;;;;;;;;16.87;28.31;100013.13;4467971;32;33934;-79
2022/03/27 00:28:58;;;;;;;;;;;;;;;16.65;28.80;100008.72;4467469;32;34094;-79
2022/03/27 00:31:25;;;;;;;;;;;;;;;17.25;27.80;100005.28;4468144;32;33270;-80
2022/03/27 00:33:54;;;;;;;;;;;;;;;17.55;27.54;100010.47;4453565;32;34369;-79
2022/03/27 00:36:21;;;;;;;;;;;;;;;17.44;27.41;100019.22;4452293;32;34399;-81
2022/03/27 00:38:48;;;;;;;;;;;;;;;17.24;27.83;100011.41;4452439;32;34706;-80
2022/03/27 00:41:17;;;;;;;;;;;;;;;17.48;27.36;100015.72;4456516;32;35055;-78
2022/03/27 00:43:44;;;;;;;;;;;;;;;16.77;28.33;100012.25;4458493;32;34015;-78
2022/03/27 00:46:12;;;;;;;;;;;;;;;17.31;27.75;100012.22;4467403;32;33629;-78
2022/03/27 00:48:41;;;;;;;;;;;;;;;17.61;27.23;100021.78;4454083;32;34037;-80
2022/03/27 00:51:08;;;;;;;;;;;;;;;17.12;28.03;100015.75;4468028;32;34269;-80
2022/03/27 00:53:35;;;;;;;;;;;;;;;16.95;28.13;100021.88;4454760;32;34242;-80
2022/03/27 00:56:03;;;;;;;;;;;;;;;16.50;29.05;100033.09;4454293;32;34115;-79
2022/03/27 00:58:30;;;;;;;;;;;;;;;16.88;28.66;100029.72;4452694;32;33983;-81
2022/03/27 01:01:04;;;;;;;;;;;;;;;16.98;28.43;100023.63;4454405;32;33342;-80
2022/03/27 01:03:33;;;;;;;;;;;;;;;17.14;28.04;100025.38;4457781;32;34604;-79
2022/03/27 01:06:00;;;;;;;;;;;;;;;17.06;28.09;100028.88;4457455;32;34018;-78
2022/03/27 01:11:16;;;;;;;;;;;;;;;17.10;27.91;100020.13;4467499;32;34112;-79
2022/03/27 01:13:46;;;;;;;;;;;;;;;17.01;28.09;100029.75;4456954;32;33714;-79
2022/03/27 01:16:16;;;;;;;;;;;;;;;17.06;28.20;100024.50;4467163;32;35412;-79
2022/03/27 01:18:44;;;;;;;;;;;;;;;16.91;28.59;100027.97;4467815;32;34042;-81
2022/03/27 01:21:13;;;;;;;;;;;;;;;17.09;28.34;100021.00;4466725;32;33842;-80
2022/03/27 01:23:40;;;;;;;;;;;;;;;16.69;28.66;100031.41;4461331;32;33746;-79
2022/03/27 01:26:08;;;;;;;;;;;;;;;16.39;29.35;100037.44;4452368;32;35339;-79
2022/03/27 01:28:40;;;;;;;;;;;;;;;16.31;29.66;100032.19;4451980;32;34819;-80
2022/03/27 01:31:07;;;;;;;;;;;;;;;16.77;29.08;100021.84;4451827;32;33608;-82
2022/03/27 01:33:34;;;;;;;;;;;;;;;16.50;29.17;100031.34;4454267;32;33961;-79
2022/03/27 01:36:02;;;;;;;;;;;;;;;15.79;30.32;100029.31;4451900;32;35364;-79
2022/03/27 01:38:29;;;;;;;;;;;;;;;15.55;30.54;100028.28;4452070;32;34079;-81
2022/03/27 01:40:56;;;;;;;;;;;;;;;15.94;29.74;100021.56;4452173;32;34062;-81
2022/03/27 01:43:23;;;;;;;;;;;;;;;16.80;28.45;100019.22;4453263;32;33762;-79
2022/03/27 01:45:51;;;;;;;;;;;;;;;16.94;28.63;100028.00;4451890;32;34560;-78
2022/03/27 01:48:18;;;;;;;;;;;;;;;17.06;28.75;100023.63;4459288;32;34510;-81
2022/03/27 01:50:57;;;;;;;;;;;;;;;16.62;28.76;100040.13;4455883;32;33688;-79
2022/03/27 01:53:24;;;;;;;;;;;;;;;16.82;28.48;100038.47;4442771;32;33991;-79
2022/03/27 01:55:52;;;;;;;;;;;;;;;16.45;29.37;100048.81;4451959;32;35319;-78
2022/03/27 01:58:19;;;;;;;;;;;;;;;16.48;29.40;100047.94;4451776;32;33891;-79
2022/03/27 02:00:47;;;;;;;;;;;;;;;16.50;29.08;100049.69;4455463;32;34261;-79
2022/03/27 02:03:14;;;;;;;;;;;;;;;16.65;28.97;100050.59;4448926;32;34991;-78
2022/03/27 02:05:41;;;;;;;;;;;;;;;16.92;28.64;100040.19;4465047;32;34249;-80
2022/03/27 02:08:10;;;;;;;;;;;;;;;16.74;28.99;100053.25;4442763;32;34321;-79
2022/03/27 02:10:56;;;;;;;;;;;;;;;16.78;28.71;100042.81;4452040;32;33580;-79
2022/03/27 02:13:23;;;;;;;;;;;;;;;17.18;28.22;100039.34;4452826;32;35191;-80
2022/03/27 02:15:50;;;;;;;;;;;;;;;16.97;28.53;100038.47;4437821;32;35240;-78
2022/03/27 02:18:17;;;;;;;;;;;;;;;16.80;28.65;100044.56;4452172;32;35169;-79
2022/03/27 02:20:45;;;;;;;;;;;;;;;16.04;29.96;100041.66;4438080;32;33660;-79
2022/03/27 02:23:12;;;;;;;;;;;;;;;16.02;29.98;100042.50;4451205;32;33975;-77
2022/03/27 02:25:39;;;;;;;;;;;;;;;16.13;30.29;100055.66;4464889;32;34122;-81
2022/03/27 02:28:07;;;;;;;;;;;;;;;16.64;29.15;100054.97;4457626;32;35022;-79
2022/03/27 02:30:34;;;;;;;;;;;;;;;16.57;29.12;100058.44;4454295;32;33218;-79
2022/03/27 02:33:01;;;;;;;;;;;;;;;15.93;30.22;100052.94;4451303;32;35030;-79
2022/03/27 02:35:29;;;;;;;;;;;;;;;16.18;30.05;100056.56;4465031;32;34570;-79
2022/03/27 02:37:56;;;;;;;;;;;;;;;15.79;30.51;100056.34;4466029;32;34162;-79
2022/03/27 02:40:23;;;;;;;;;;;;;;;14.97;31.44;100056.59;4465210;32;33344;-79
2022/03/27 02:42:51;;;;;;;;;;;;;;;15.63;30.85;100066.69;4456277;32;34085;-79
2022/03/27 02:45:18;;;;;;;;;;;;;;;14.35;32.53;100069.81;4459840;32;35402;-79
2022/03/27 02:47:45;;;;;;;;;;;;;;;15.70;30.88;100065.88;4454743;32;34090;-79
2022/03/27 02:50:13;;;;;;;;;;;;;;;15.69;30.83;100064.16;4464160;32;33321;-81
2022/03/27 02:52:40;;;;;;;;;;;;;;;16.47;29.66;100070.59;4464482;32;34260;-78
2022/03/27 02:55:07;;;;;;;;;;;;;;;15.99;30.33;100071.28;4461785;32;34557;-79
2022/03/27 02:57:34;;;;;;;;;;;;;;;15.83;31.10;100078.16;4466226;32;33986;-79
2022/03/27 03:00:02;;;;;;;;;;;;;;;16.37;30.08;100068.84;4460700;32;33614;-78
2022/03/27 03:02:30;;;;;;;;;;;;;;;16.51;29.73;100069.75;4461563;32;34047;-80
2022/03/27 03:04:57;;;;;;;;;;;;;;;16.83;29.08;100061.16;4458255;32;34127;-79
2022/03/27 03:07:25;;;;;;;;;;;;;;;16.83;28.92;100063.75;4458786;32;34236;-79
2022/03/27 03:09:52;;;;;;;;;;;;;;;16.88;29.47;100056.78;4461554;32;34458;-79
2022/03/27 03:12:20;;;;;;;;;;;;;;;16.72;29.63;100068.94;4461896;32;33996;-79
2022/03/27 03:14:47;;;;;;;;;;;;;;;16.43;29.68;100071.47;4463304;32;34502;-79
2022/03/27 03:17:14;;;;;;;;;;;;;;;16.45;30.00;100074.13;4449675;32;33999;-79
2022/03/27 03:19:41;;;;;;;;;;;;;;;16.29;29.98;100089.75;4463220;32;33740;-78
2022/03/27 03:22:09;;;;;;;;;;;;;;;15.38;31.42;100087.41;4465699;32;34535;-79
2022/03/27 03:24:36;;;;;;;;;;;;;;;14.80;32.44;100092.09;4460377;32;34833;-79
2022/03/27 03:27:04;;;;;;;;;;;;;;;15.33;31.81;100091.72;4456248;32;33976;-78
2022/03/27 03:29:31;;;;;;;;;;;;;;;14.29;33.31;100106.25;4456365;32;33065;-77
2022/03/27 03:31:58;;;;;;;;;;;;;;;14.74;33.05;100105.97;4459421;32;34821;-79
2022/03/27 03:34:25;;;;;;;;;;;;;;;15.43;31.66;100106.62;4454616;32;33961;-79
2022/03/27 03:36:52;;;;;;;;;;;;;;;16.00;31.01;100107.03;4467914;32;34203;-79
2022/03/27 03:39:19;;;;;;;;;;;;;;;16.29;30.17;100113.31;4462929;32;34086;-82
2022/03/27 03:41:47;;;;;;;;;;;;;;;16.95;29.12;100112.69;4452852;32;34297;-77
2022/03/27 03:44:24;;;;;;;;;;;;;;;16.82;29.21;100111.78;4456168;32;34270;-79
2022/03/27 03:46:52;;;;;;;;;;;;;;;15.90;30.72;100113.06;4457787;32;34359;-79
2022/03/27 03:49:20;;;;;;;;;;;;;;;16.26;30.21;100109.78;4460137;32;33154;-79
2022/03/27 03:51:49;;;;;;;;;;;;;;;16.68;29.56;100116.94;4466226;32;34021;-79
2022/03/27 03:54:16;;;;;;;;;;;;;;;16.86;29.61;100124.00;4464639;32;35577;-78
2022/03/27 03:56:43;;;;;;;;;;;;;;;16.74;29.47;100122.25;4452345;32;35091;-79
2022/03/27 03:59:10;;;;;;;;;;;;;;;16.39;30.37;100132.53;4453319;32;33185;-78
2022/03/27 04:01:55;;;;;;;;;;;;;;;16.82;29.57;100132.75;4452666;32;34364;-79
2022/03/27 04:04:22;;;;;;;;;;;;;;;17.16;29.20;100119.69;4460306;32;34428;-80
2022/03/27 04:06:50;;;;;;;;;;;;;;;15.92;31.10;100133.16;4452729;32;34635;-81
2022/03/27 04:09:17;;;;;;;;;;;;;;;16.29;30.42;100143.84;4456185;32;33715;-79
2022/03/27 04:11:45;;;;;;;;;;;;;;;16.11;30.91;100136.75;4467882;32;35065;-80
2022/03/27 04:14:12;;;;;;;;;;;;;;;16.84;29.62;100138.84;4463530;32;34011;-79
2022/03/27 04:16:40;;;;;;;;;;;;;;;16.92;29.56;100149.34;4456651;32;34224;-79
2022/03/27 04:19:07;;;;;;;;;;;;;;;17.56;28.52;100144.19;4464924;32;33105;-79
2022/03/27 04:21:34;;;;;;;;;;;;;;;17.63;28.33;100142.44;4452380;32;33837;-79
2022/03/27 04:24:01;;;;;;;;;;;;;;;17.40;28.72;100145.94;4452685;32;34044;-80
2022/03/27 04:26:32;;;;;;;;;;;;;;;17.22;28.94;100154.63;4455932;32;34040;-80
2022/03/27 04:29:00;;;;;;;;;;;;;;;17.35;28.55;100160.78;4453470;32;34187;-84
2022/03/27 04:31:28;;;;;;;;;;;;;;;17.17;29.01;100166.00;4468080;32;34408;-80
2022/03/27 04:33:56;;;;;;;;;;;;;;;17.44;28.65;100171.28;4463775;32;34186;-79
2022/03/27 04:36:23;;;;;;;;;;;;;;;17.56;28.46;100174.78;4462103;32;33694;-79
2022/03/27 04:38:50;;;;;;;;;;;;;;;17.21;28.90;100189.59;4454255;32;33089;-79
2022/03/27 04:41:18;;;;;;;;;;;;;;;17.50;28.35;100202.75;4467980;32;34029;-80
2022/03/27 04:43:47;;;;;;;;;;;;;;;17.44;28.71;100197.47;4462299;32;35210;-80
2022/03/27 04:46:15;;;;;;;;;;;;;;;17.28;28.97;100211.44;4467417;32;34004;-79
2022/03/27 04:48:43;;;;;;;;;;;;;;;16.47;30.57;100214.56;4468264;32;34493;-79
2022/03/27 04:51:10;;;;;;;;;;;;;;;16.70;30.18;100222.53;4467790;32;35174;-83
2022/03/27 04:53:38;;;;;;;;;;;;;;;15.74;32.16;100229.75;4463958;32;35430;-79
2022/03/27 04:56:06;;;;;;;;;;;;;;;16.04;31.73;100226.50;4452471;32;34458;-79
2022/03/27 04:58:34;;;;;;;;;;;;;;;16.78;30.55;100230.47;4452245;32;32857;-79
2022/03/27 05:01:01;;;;;;;;;;;;;;;16.93;30.55;100230.56;4452136;32;34535;-80
2022/03/27 05:03:29;;;;;;;;;;;;;;;17.02;30.33;100227.09;4454060;32;35087;-79
2022/03/27 05:05:56;;;;;;;;;;;;;;;16.99;30.34;100230.56;4461141;32;34753;-80
2022/03/27 05:08:23;;;;;;;;;;;;;;;16.77;30.92;100226.97;4451987;32;33949;-80
2022/03/27 05:10:51;;;;;;;;;;;;;;;16.61;31.22;100229.50;4452030;32;35147;-80
2022/03/27 05:13:18;;;;;;;;;;;;;;;17.01;30.76;100236.69;4451955;32;34392;-79
2022/03/27 05:15:45;;;;;;;;;;;;;;;17.48;29.90;100246.44;4457019;32;34072;-79
2022/03/27 05:18:13;;;;;;;;;;;;;;;17.93;29.10;100243.87;4452662;32;34004;-79
2022/03/27 05:20:41;;;;;;;;;;;;;;;18.09;28.77;100243.00;4452342;32;34980;-77
2022/03/27 05:23:08;;;;;;;;;;;;;;;15.89;32.81;100258.66;4452411;32;33936;-81
2022/03/27 05:25:40;;;;;;;;;;;;;;;17.21;30.54;100255.09;4442990;32;33859;-79
2022/03/27 05:28:08;;;;;;;;;;;;;;;17.99;29.81;100254.37;4467527;32;33297;-81
2022/03/27 05:30:36;;;;;;;;;;;;;;;17.94;29.61;100248.25;4452161;32;33851;-79
2022/03/27 05:33:04;;;;;;;;;;;;;;;17.71;29.82;100266.56;4438333;32;34366;-79
2022/03/27 05:35:31;;;;;;;;;;;;;;;17.48;30.20;100263.91;4452756;32;34431;-77
2022/03/27 05:38:04;;;;;;;;;;;;;;;17.91;29.55;100261.37;4459975;32;32967;-77
2022/03/27 05:40:31;;;;;;;;;;;;;;;15.77;32.13;100269.88;4463088;32;34368;-79
2022/03/27 05:42:58;;;;;;;;;;;;;;;15.08;33.10;100276.94;4459879;32;35370;-78
2022/03/27 05:45:25;;;;;;;;;;;;;;;16.00;32.46;100280.53;4451948;32;34670;-79
2022/03/27 05:47:54;;;;;;;;;;;;;;;16.34;31.32;100280.81;4453498;32;33821;-79
2022/03/27 05:50:22;;;;;;;;;;;;;;;17.22;29.94;100282.19;4451184;32;34921;-78
2022/03/27 05:52:50;;;;;;;;;;;;;;;17.08;30.34;100283.84;4447615;32;34540;-77
2022/03/27 05:55:17;;;;;;;;;;;;;;;16.95;30.78;100294.28;4460502;32;34123;-79
2022/03/27 05:57:44;;;;;;;;;;;;;;;15.17;33.70;100296.19;4457606;32;33100;-80
2022/03/27 06:00:12;;;;;;;;;;;;;;;15.79;33.19;100301.25;4460403;32;34162;-80
2022/03/27 06:02:41;;;;;;;;;;;;;;;15.76;33.22;100307.34;4459948;32;34517;-80
2022/03/27 06:05:08;;;;;;;;;;;;;;;15.06;34.62;100311.72;4443382;32;34021;-79
2022/03/27 06:07:45;;;;;;;;;;;;;;;15.31;34.65;100318.16;4460327;32;31960;-79
2022/03/27 06:10:13;;;;;;;;;;;;;;;15.26;34.62;100325.03;4458992;32;34419;-80
2022/03/27 06:12:43;;;;;;;;;;;;;;;14.65;36.04;100314.63;4457975;32;35012;-79
2022/03/27 06:15:10;;;;;;;;;;;;;;;15.18;35.31;100334.50;4465655;32;34637;-79
2022/03/27 06:17:39;;;;;;;;;;;;;;;16.18;33.42;100331.28;4460003;32;34525;-79
2022/03/27 06:20:06;;;;;;;;;;;;;;;16.21;33.39;100331.28;4463369;32;34362;-80
2022/03/27 06:22:33;;;;;;;;;;;;;;;16.27;33.38;100341.81;4450370;32;35128;-80
2022/03/27 06:25:02;;;;;;;;;;;;;;;16.79;32.37;100334.38;4460701;32;34570;-80
2022/03/27 06:27:29;;;;;;;;;;;;;;;16.98;31.88;100328.37;4460236;32;33578;-79
2022/03/27 06:29:56;;;;;;;;;;;;;;;16.49;32.58;100338.50;4456174;32;34088;-79
2022/03/27 06:32:26;;;;;;;;;;;;;;;14.91;35.53;100348.94;4459147;32;35072;-78
2022/03/27 06:34:57;;;;;;;;;;;;;;;15.80;34.11;100339.63;4462386;32;34038;-78
2022/03/27 06:37:25;;;;;;;;;;;;;;;15.54;34.99;100348.03;4459017;32;33148;-79
2022/03/27 06:39:54;;;;;;;;;;;;;;;15.00;35.49;100353.41;4442086;32;35151;-82
2022/03/27 06:42:22;;;;;;;;;;;;;;;14.91;35.75;100353.31;4460225;32;35447;-79
2022/03/27 06:44:51;;;;;;;;;;;;;;;15.31;35.36;100352.97;4464153;32;34331;-79
2022/03/27 06:47:18;;;;;;;;;;;;;;;16.44;33.18;100360.25;4462953;32;33233;-79
2022/03/27 06:49:46;;;;;;;;;;;;;;;15.48;35.05;100363.63;4451240;32;34947;-79
2022/03/27 06:52:14;;;;;;;;;;;;;;;14.91;36.56;100364.62;4437118;32;34423;-79
2022/03/27 06:54:41;;;;;;;;;;;;;;;15.79;34.81;100361.38;4451397;32;34006;-80
2022/03/27 06:57:09;;;;;;;;;;;;;;;16.01;34.25;100355.50;4449925;32;33933;-79
2022/03/27 07:05:09;;;;;;;;;;;;;;;15.83;34.90;100357.94;4456034;32;34006;-78
2022/03/27 07:07:36;;;;;;;;;;;;;;;15.50;35.41;100364.53;4465885;32;33962;-79
2022/03/27 07:10:04;;;;;;;;;;;;;;;16.76;33.08;100363.16;4456018;32;33966;-79
2022/03/27 07:12:31;;;;;;;;;;;;;;;16.77;32.87;100365.78;4451061;32;34369;-83
2022/03/27 07:14:58;;;;;;;;;;;;;;;16.29;33.79;100376.72;4455622;32;34606;-83
2022/03/27 07:17:49;;;;;;;;;;;;;;;16.35;33.54;100376.75;4450721;32;33790;-80
2022/03/27 07:20:17;;;;;;;;;;;;;;;16.67;33.15;100370.94;4450455;32;35174;-79
2022/03/27 07:22:45;;;;;;;;;;;;;;;17.04;32.72;100369.44;4437150;32;34774;-79
2022/03/27 07:25:13;;;;;;;;;;;;;;;17.40;32.20;100366.13;4456421;32;33753;-79
2022/03/27 07:27:41;;;;;;;;;;;;;;;17.71;31.32;100374.97;4454984;32;33243;-80
2022/03/27 07:30:09;;;;;;;;;;;;;;;17.14;32.18;100359.88;4454158;32;35022;-79
2022/03/27 07:32:37;;;;;;;;;;;;;;;17.69;31.74;100370.56;4453461;32;34430;-80
2022/03/27 07:35:05;;;;;;;;;;;;;;;17.44;32.18;100378.38;4455804;32;34503;-78
2022/03/27 07:37:34;;;;;;;;;;;;;;;17.27;32.46;100378.31;4467843;32;34530;-79
2022/03/27 07:40:03;;;;;;;;;;;;;;;17.44;31.95;100381.00;4468719;32;34429;-79
2022/03/27 07:42:31;;;;;;;;;;;;;;;17.23;32.30;100375.66;4467150;32;34254;-81
2022/03/27 07:44:58;;;;;;;;;;;;;;;17.37;32.42;100378.34;4456349;32;35072;-81
2022/03/27 07:47:31;;;;;;;;;;;;;;;17.14;32.78;100386.09;4439353;32;34050;-79
2022/03/27 07:49:59;;;;;;;;;;;;;;;17.50;32.51;100395.84;4452869;32;34310;-78
2022/03/27 07:52:27;;;;;;;;;;;;;;;18.09;31.25;100391.72;4448329;32;33678;-79
2022/03/27 07:54:54;;;;;;;;;;;;;;;18.23;31.00;100382.13;4438815;32;34602;-79
2022/03/27 07:57:21;;;;;;;;;;;;;;;19.15;29.87;100387.31;4452706;32;33769;-80
2022/03/27 07:59:49;;;;;;;;;;;;;;;19.13;29.75;100383.81;4453062;32;35177;-80
2022/03/27 08:02:16;;;;;;;;;;;;;;;19.26;29.87;100388.16;4460601;32;34551;-80
2022/03/27 08:04:44;;;;;;;;;;;;;;;19.64;29.63;100385.41;4453902;32;35568;-78
2022/03/27 08:07:12;;;;;;;;;;;;;;;19.34;30.34;100385.50;4452855;32;34146;-80
2022/03/27 08:09:39;;;;;;;;;;;;;;;19.88;29.35;100388.78;4452677;32;33961;-80
2022/03/27 08:12:09;;;;;;;;;;;;;;;20.38;28.59;100388.47;4454577;32;35396;-81
2022/03/27 08:14:36;;;;;;;;;;;;;;;19.61;29.70;100390.66;4466747;32;35120;-78
2022/03/27 08:17:03;;;;;;;;;;;;;;;18.75;30.88;100389.13;4467952;32;32786;-77
2022/03/27 08:19:33;;;;;;;;;;;;;;;18.93;30.49;100391.75;4456250;32;34254;-78
2022/03/27 08:22:01;;;;;;;;;;;;;;;19.78;29.39;100380.09;4438653;32;34841;-79
2022/03/27 08:24:28;;;;;;;;;;;;;;;19.05;30.70;100378.56;4454182;32;34259;-80
2022/03/27 08:26:56;;;;;;;;;;;;;;;19.59;29.92;100378.41;4459476;32;33960;-78
2022/03/27 08:29:24;;;;;;;;;;;;;;;18.33;31.40;100386.47;4462375;32;35564;-79
2022/03/27 08:31:52;;;;;;;;;;;;;;;18.81;31.42;100376.88;4460203;32;34277;-78
2022/03/27 08:34:20;;;;;;;;;;;;;;;19.59;29.71;100381.03;4465907;32;33771;-77
2022/03/27 08:36:48;;;;;;;;;;;;;;;19.56;29.97;100375.78;4453589;32;32744;-78
2022/03/27 08:39:15;;;;;;;;;;;;;;;19.27;30.56;100381.16;4456464;32;35537;-79
2022/03/27 08:41:43;;;;;;;;;;;;;;;17.84;32.49;100383.81;4441167;32;34169;-77
2022/03/27 08:44:11;;;;;;;;;;;;;;;18.17;32.29;100389.97;4439368;32;33890;-78
2022/03/27 08:46:39;;;;;;;;;;;;;;;18.78;31.32;100379.50;4455216;32;33379;-79
2022/03/27 08:49:15;;;;;;;;;;;;;;;19.53;29.84;100378.41;4448335;32;34564;-79
2022/03/27 08:51:47;;;;;;;;;;;;;;;18.35;31.64;100390.00;4454914;32;34223;-80
2022/03/27 08:54:19;;;;;;;;;;;;;;;18.25;31.89;100390.84;4461457;32;33925;-84
2022/03/27 08:56:47;;;;;;;;;;;;;;;18.07;32.28;100393.44;4454922;32;33306;-80
2022/03/27 08:59:14;;;;;;;;;;;;;;;18.30;31.79;100397.00;4442527;32;35018;-80
2022/03/27 09:01:42;;;;;;;;;;;;;;;18.01;32.38;100406.56;4453739;32;34373;-83
2022/03/27 09:04:11;;;;;;;;;;;;;;;18.54;31.70;100400.50;4453784;32;34022;-79
2022/03/27 09:06:38;;;;;;;;;;;;;;;17.85;32.76;100397.78;4465001;32;33466;-79
2022/03/27 09:09:06;;;;;;;;;;;;;;;18.16;31.80;100394.34;4453424;32;35050;-80
2022/03/27 09:11:33;;;;;;;;;;;;;;;18.22;31.94;100396.09;4456254;32;34235;-80
2022/03/27 09:14:00;;;;;;;;;;;;;;;17.06;33.83;100396.53;4445364;32;34950;-78
2022/03/27 09:16:27;;;;;;;;;;;;;;;17.74;32.60;100402.97;4453073;32;33423;-82
2022/03/27 09:18:58;;;;;;;;;;;;;;;17.64;33.37;100394.19;4467268;32;34949;-79
2022/03/27 09:21:27;;;;;;;;;;;;;;;18.75;31.55;100395.25;4462276;32;35330;-79
2022/03/27 09:23:55;;;;;;;;;;;;;;;19.63;30.25;100390.69;4458176;32;33999;-80
2022/03/27 09:26:22;;;;;;;;;;;;;;;18.56;31.22;100404.00;4456035;32;33547;-80
2022/03/27 09:28:52;;;;;;;;;;;;;;;19.39;29.98;100399.50;4455717;32;34136;-80
2022/03/27 09:31:27;;;;;;;;;;;;;;;17.32;33.17;100394.06;4443606;32;32659;-79
2022/03/27 09:33:59;;;;;;;;;;;;;;;17.96;32.45;100391.69;4449071;32;33902;-80
2022/03/27 09:36:30;;;;;;;;;;;;;;;17.83;32.33;100404.75;4458990;32;33029;-80
2022/03/27 09:39:16;;;;;;;;;;;;;;;18.66;31.19;100390.00;4462882;32;34258;-80
2022/03/27 09:41:44;;;;;;;;;;;;;;;17.83;32.46;100394.28;4455758;32;34090;-80
2022/03/27 09:44:13;;;;;;;;;;;;;;;18.47;31.62;100400.50;4463251;32;35039;-79
2022/03/27 09:46:52;;;;;;;;;;;;;;;19.01;30.81;100399.59;4457779;32;33294;-80
2022/03/27 09:49:25;;;;;;;;;;;;;;;18.10;31.75;100404.81;4466644;32;34172;-81
2022/03/27 09:52:13;;;;;;;;;;;;;;;18.10;31.86;100394.31;4454275;32;34714;-81
2022/03/27 09:54:48;;;;;;;;;;;;;;;18.52;31.09;100399.63;4467379;32;34015;-81
2022/03/27 09:57:19;;;;;;;;;;;;;;;17.17;33.13;100404.47;4466689;32;33456;-80
2022/03/27 09:59:46;;;;;;;;;;;;;;;17.77;32.50;100400.38;4467003;32;33936;-81
2022/03/27 10:02:23;;;;;;;;;;;;;;;17.57;32.51;100391.53;4449917;32;35148;-79
2022/03/27 10:04:52;;;;;;;;;;;;;;;17.70;32.18;100395.97;4459140;32;34152;-80
2022/03/27 10:07:19;;;;;;;;;;;;;;;18.02;32.29;100384.69;4465561;32;33393;-81
2022/03/27 10:09:46;;;;;;;;;;;;;;;18.02;31.95;100384.69;4458585;32;34393;-80
2022/03/27 10:12:14;;;;;;;;;;;;;;;19.23;30.27;100375.03;4454982;32;34379;-81
2022/03/27 10:14:47;;;;;;;;;;;;;;;18.90;30.47;100374.25;4450621;32;33897;-81
2022/03/27 10:17:14;;;;;;;;;;;;;;;18.46;31.00;100382.13;4453464;32;33396;-80
2022/03/27 10:19:46;;;;;;;;;;;;;;;18.88;30.31;100385.63;4452923;32;34046;-80
2022/03/27 10:22:15;;;;;;;;;;;;;;;19.61;29.19;100387.16;4447050;32;34412;-81
2022/03/27 10:24:42;;;;;;;;;;;;;;;20.32;28.02;100377.97;4440637;32;34991;-80
2022/03/27 10:27:09;;;;;;;;;;;;;;;20.16;28.28;100382.47;4445735;32;33485;-80
2022/03/27 10:29:36;;;;;;;;;;;;;;;19.09;29.61;100384.69;4453152;32;34208;-81
2022/03/27 10:32:04;;;;;;;;;;;;;;;20.71;27.29;100378.53;4465716;32;32991;-80
2022/03/27 10:34:40;;;;;;;;;;;;;;;20.92;26.71;100380.13;4451102;32;34093;-81
2022/03/27 10:37:17;;;;;;;;;;;;;;;22.00;25.57;100363.84;4451460;32;32966;-80
2022/03/27 10:39:45;;;;;;;;;;;;;;;21.84;25.40;100358.78;4452535;32;33951;-81
2022/03/27 10:42:14;;;;;;;;;;;;;;;21.81;25.92;100364.09;4439297;32;34936;-81
2022/03/27 10:44:50;;;;;;;;;;;;;;;20.29;27.18;100370.09;4439318;32;33383;-80
2022/03/27 10:47:21;;;;;;;;;;;;;;;20.35;27.40;100374.44;4443711;32;33035;-80
2022/03/27 10:50:01;;;;;;;;;;;;;;;21.45;25.79;100372.53;4463817;32;34279;-80
2022/03/27 10:52:30;;;;;;;;;;;;;;;20.72;26.68;100372.41;4469025;32;34003;-81
2022/03/27 10:54:58;;;;;;;;;;;;;;;21.03;26.26;100369.47;4466268;32;34936;-81
2022/03/27 10:57:32;;;;;;;;;;;;;;;21.59;25.97;100371.47;4480513;32;33695;-81
2022/03/27 10:59:59;;;;;;;;;;;;;;;21.32;25.98;100364.69;4465080;32;34299;-80
2022/03/27 11:02:46;;;;;;;;;;;;;;;22.00;24.38;100362.06;4445854;32;35085;-82
2022/03/27 11:05:29;;;;;;;;;;;;;;;22.13;24.64;100352.22;4454815;32;33996;-78
2022/03/27 11:08:16;;;;;;;;;;;;;;;21.25;25.06;100344.59;4468162;32;33312;-80
2022/03/27 11:10:49;;;;;;;;;;;;;;;21.79;24.20;100347.44;4467136;32;34733;-84
2022/03/27 11:13:26;;;;;;;;;;;;;;;22.33;23.92;100355.41;4453425;32;34080;-79
2022/03/27 11:16:12;;;;;;;;;;;;;;;22.08;24.24;100359.31;4477496;32;34269;-78
2022/03/27 11:18:41;;;;;;;;;;;;;;;21.20;25.03;100351.66;4468019;32;33320;-79
2022/03/27 11:21:12;;;;;;;;;;;;;;;21.24;25.19;100353.38;4467578;32;33962;-78
2022/03/27 11:23:40;;;;;;;;;;;;;;;21.66;24.91;100359.03;4467640;32;35388;-78
2022/03/27 11:26:19;;;;;;;;;;;;;;;22.30;24.09;100336.97;4465230;32;35065;-79
2022/03/27 11:28:59;;;;;;;;;;;;;;;22.45;24.99;100349.06;4456025;32;33096;-81
2022/03/27 11:31:31;;;;;;;;;;;;;;;21.76;24.52;100346.59;4451155;32;34135;-79
2022/03/27 11:34:05;;;;;;;;;;;;;;;21.71;24.60;100338.75;4454788;32;34406;-81
2022/03/27 11:36:32;;;;;;;;;;;;;;;20.80;25.80;100336.31;4458735;32;34938;-78
2022/03/27 11:39:02;;;;;;;;;;;;;;;19.19;28.15;100339.97;4468204;32;33285;-80
2022/03/27 11:41:30;;;;;;;;;;;;;;;20.16;27.00;100339.50;4455881;32;35272;-79
2022/03/27 11:44:18;;;;;;;;;;;;;;;21.11;25.44;100326.28;4453173;32;34858;-79
2022/03/27 11:46:49;;;;;;;;;;;;;;;21.76;24.78;100322.84;4449117;32;34815;-80
2022/03/27 11:49:19;;;;;;;;;;;;;;;21.97;25.18;100326.91;4447804;32;33237;-80
2022/03/27 11:51:47;;;;;;;;;;;;;;;22.06;24.10;100310.94;4449274;32;33971;-81
2022/03/27 11:54:18;;;;;;;;;;;;;;;21.51;24.55;100317.88;4438682;32;34768;-79
2022/03/27 11:56:51;;;;;;;;;;;;;;;21.84;24.37;100319.19;4439729;32;33912;-80
2022/03/27 11:59:18;;;;;;;;;;;;;;;20.69;25.81;100316.22;4466340;32;33445;-83
2022/03/27 12:01:49;;;;;;;;;;;;;;;21.13;25.16;100308.66;4457642;32;34930;-79
2022/03/27 12:04:18;;;;;;;;;;;;;;;21.17;25.77;100308.63;4454385;32;34843;-82
2022/03/27 12:06:46;;;;;;;;;;;;;;;21.21;25.24;100299.78;4463579;32;34092;-79
2022/03/27 12:09:24;;;;;;;;;;;;;;;21.40;25.73;100300.47;4451892;32;33553;-81
2022/03/27 12:12:04;;;;;;;;;;;;;;;22.11;23.85;100301.16;4448580;32;34118;-79
2022/03/27 12:14:32;;;;;;;;;;;;;;;22.42;23.51;100298.03;4461897;32;33910;-79
2022/03/27 12:16:59;;;;;;;;;;;;;;;22.37;23.56;100306.03;4462907;32;33808;-78
2022/03/27 12:19:26;;;;;;;;;;;;;;;22.19;24.67;100301.06;4467867;32;33246;-79
2022/03/27 12:21:54;;;;;;;;;;;;;;;21.40;24.43;100285.50;4467174;32;34886;-80
2022/03/27 12:24:21;;;;;;;;;;;;;;;21.49;24.47;100295.06;4473058;32;34212;-79
2022/03/27 12:29:42;;;;;;;;;;;;;;;19.81;26.59;100294.97;4452091;32;33967;-80
2022/03/27 12:32:14;;;;;;;;;;;;;;;20.26;26.54;100296.38;4454001;32;36839;-81
2022/03/27 12:34:48;;;;;;;;;;;;;;;20.86;24.99;100280.87;4458791;32;33579;-80
2022/03/27 12:37:17;;;;;;;;;;;;;;;21.83;24.18;100288.41;4467646;32;34043;-81
2022/03/27 12:39:48;;;;;;;;;;;;;;;21.37;24.47;100281.16;4443427;32;33683;-83
2022/03/27 12:42:32;;;;;;;;;;;;;;;21.69;24.38;100279.81;4465463;32;34352;-80
2022/03/27 12:45:10;;;;;;;;;;;;;;;21.29;24.63;100275.09;4463425;32;34546;-82
2022/03/27 12:47:40;;;;;;;;;;;;;;;20.35;25.69;100267.34;4444936;32;34595;-83
2022/03/27 12:50:09;;;;;;;;;;;;;;;21.18;25.24;100269.09;4455783;32;34176;-80
2022/03/27 12:52:44;;;;;;;;;;;;;;;21.59;24.81;100273.81;4452460;32;34359;-81
2022/03/27 12:55:11;;;;;;;;;;;;;;;21.35;24.63;100264.47;4441119;32;35199;-80
2022/03/27 12:57:48;;;;;;;;;;;;;;;20.83;25.68;100261.56;4458991;32;34163;-82
2022/03/27 13:00:16;;;;;;;;;;;;;;;21.71;24.85;100261.34;4453988;32;33599;-85